createdAt,value
2018-05-29T00:00:52.428Z,99.90
2018-05-29T00:03:20.774Z,99.90
2018-05-29T00:05:49.852Z,99.90
2018-05-29T00:08:17.576Z,99.90
2018-05-29T00:10:45.131Z,99.90
2018-05-29T00:13:12.940Z,99.90
2018-05-29T00:15:40.600Z,99.90
2018-05-29T00:18:08.185Z,99.90
2018-05-29T00:20:35.886Z,99.90
2018-05-29T00:23:03.785Z,99.90
2018-05-29T00:25:31.665Z,99.90
2018-05-29T00:27:59.214Z,99.90
2018-05-29T00:30:27.119Z,99.90
2018-05-29T00:32:54.797Z,99.90
2018-05-29T00:35:22.541Z,99.90
2018-05-29T00:37:50.899Z,99.90
2018-05-29T00:40:20.095Z,99.90
2018-05-29T00:42:47.913Z,99.90
2018-05-29T00:45:15.615Z,99.90
2018-05-29T00:47:43.476Z,99.90
2018-05-29T00:50:11.288Z,99.90
2018-05-29T00:52:38.945Z,99.90
2018-05-29T00:55:18.737Z,99.90
2018-05-29T00:57:46.605Z,99.90
2018-05-29T01:00:14.276Z,99.90
2018-05-29T01:02:42.114Z,99.90
2018-05-29T01:05:09.993Z,99.90
2018-05-29T01:07:38.069Z,99.90
2018-05-29T01:10:06.324Z,99.90
2018-05-29T01:12:34.264Z,99.90
2018-05-29T01:15:02.031Z,99.90
2018-05-29T01:17:29.691Z,99.90
2018-05-29T01:19:57.596Z,99.90
2018-05-29T01:22:25.363Z,99.90
2018-05-29T01:24:53.124Z,99.90
2018-05-29T01:27:20.776Z,99.90
2018-05-29T01:29:48.431Z,99.90
2018-05-29T01:32:16.180Z,99.90
2018-05-29T01:34:43.958Z,99.90
2018-05-29T01:37:11.516Z,99.90
2018-05-29T01:39:39.088Z,99.90
2018-05-29T01:42:06.957Z,99.90
2018-05-29T01:44:34.491Z,99.90
2018-05-29T01:47:02.228Z,99.90
2018-05-29T01:49:30.155Z,99.90
2018-05-29T01:51:57.756Z,99.90
2018-05-29T01:54:25.536Z,99.90
2018-05-29T01:56:54.367Z,99.90
2018-05-29T01:59:22.240Z,99.90
2018-05-29T02:01:49.783Z,99.90
2018-05-29T02:04:17.690Z,99.90
2018-05-29T02:06:45.412Z,99.90
2018-05-29T02:09:13.234Z,99.90
2018-05-29T02:11:40.941Z,99.90
2018-05-29T02:14:08.795Z,99.90
2018-05-29T02:16:36.677Z,99.90
2018-05-29T02:19:04.528Z,99.90
2018-05-29T02:21:32.201Z,99.90
2018-05-29T02:24:00.069Z,99.90
2018-05-29T02:26:27.967Z,99.90
2018-05-29T02:28:56.557Z,99.90
2018-05-29T02:31:24.594Z,99.90
2018-05-29T02:33:52.385Z,99.90
2018-05-29T02:36:20.824Z,99.90
2018-05-29T02:38:48.540Z,99.90
2018-05-29T02:41:16.144Z,99.90
2018-05-29T02:43:43.815Z,99.90
2018-05-29T02:46:11.824Z,99.90
2018-05-29T02:48:39.784Z,99.90
2018-05-29T02:51:08.091Z,99.90
2018-05-29T02:53:35.828Z,99.90
2018-05-29T02:56:03.932Z,99.90
2018-05-29T02:58:31.815Z,99.90
2018-05-29T03:00:59.495Z,99.90
2018-05-29T03:03:27.209Z,99.90
2018-05-29T03:05:55.015Z,99.90
2018-05-29T03:08:22.851Z,99.90
2018-05-29T03:10:50.713Z,99.90
2018-05-29T03:13:18.401Z,99.90
2018-05-29T03:15:45.940Z,99.90
2018-05-29T03:18:13.687Z,99.90
2018-05-29T03:20:41.282Z,99.90
2018-05-29T03:23:08.820Z,99.90
2018-05-29T03:25:36.400Z,99.90
2018-05-29T03:28:04.581Z,99.90
2018-05-29T03:30:32.411Z,99.90
2018-05-29T03:33:00.146Z,99.90
2018-05-29T03:35:27.967Z,99.90
2018-05-29T03:37:55.599Z,99.90
2018-05-29T03:40:23.480Z,99.90
2018-05-29T03:42:51.304Z,99.90
2018-05-29T03:45:19.020Z,99.90
2018-05-29T03:47:46.716Z,99.90
2018-05-29T03:50:15.033Z,99.90
2018-05-29T03:52:42.585Z,99.90
2018-05-29T03:55:10.341Z,99.90
2018-05-29T03:57:38.143Z,99.90
2018-05-29T04:00:05.970Z,99.90
2018-05-29T04:02:33.647Z,99.90
2018-05-29T04:05:01.194Z,99.90
2018-05-29T04:07:28.745Z,99.90
2018-05-29T04:09:56.403Z,99.90
2018-05-29T04:12:25.089Z,99.90
2018-05-29T04:14:52.638Z,99.90
2018-05-29T04:17:20.264Z,99.90
2018-05-29T04:19:48.137Z,99.90
2018-05-29T04:22:16.556Z,99.90
2018-05-29T04:24:44.268Z,99.90
2018-05-29T04:27:12.597Z,99.90
2018-05-29T04:29:40.389Z,99.90
2018-05-29T04:32:08.048Z,99.90
2018-05-29T04:34:35.662Z,99.90
2018-05-29T04:37:03.207Z,99.90
2018-05-29T04:39:30.974Z,99.90
2018-05-29T04:41:58.576Z,99.90
2018-05-29T04:44:26.345Z,99.90
2018-05-29T04:46:53.997Z,99.90
2018-05-29T04:49:21.884Z,99.90
2018-05-29T04:51:49.436Z,99.90
2018-05-29T04:54:17.140Z,99.90
2018-05-29T04:56:44.712Z,99.90
2018-05-29T04:59:12.296Z,99.90
2018-05-29T05:01:40.203Z,99.90
2018-05-29T05:04:08.005Z,99.90
2018-05-29T05:06:35.765Z,99.90
2018-05-29T05:09:03.657Z,99.90
2018-05-29T05:11:31.218Z,99.90
2018-05-29T05:13:59.057Z,99.90
2018-05-29T05:16:27.019Z,99.90
2018-05-29T05:18:54.572Z,99.90
2018-05-29T05:21:22.125Z,99.90
2018-05-29T05:23:50.750Z,99.90
2018-05-29T05:26:18.456Z,99.90
2018-05-29T05:28:46.004Z,99.90
2018-05-29T05:31:13.602Z,99.90
2018-05-29T05:33:41.152Z,99.90
2018-05-29T05:36:09.053Z,99.90
2018-05-29T05:38:36.888Z,99.90
2018-05-29T05:41:04.445Z,99.90
2018-05-29T05:43:32.276Z,99.90
2018-05-29T05:46:00.005Z,99.90
2018-05-29T05:48:27.740Z,99.90
2018-05-29T05:50:55.465Z,99.90
2018-05-29T05:53:23.257Z,99.90
2018-05-29T05:55:50.929Z,99.90
2018-05-29T05:58:18.645Z,99.90
2018-05-29T06:00:46.545Z,99.90
2018-05-29T06:03:15.198Z,99.90
2018-05-29T06:05:43.206Z,99.90
2018-05-29T06:08:10.836Z,99.90
2018-05-29T06:10:39.981Z,99.90
2018-05-29T06:13:07.670Z,99.90
2018-05-29T06:15:35.553Z,99.90
2018-05-29T06:18:03.136Z,99.90
2018-05-29T06:20:31.020Z,99.90
2018-05-29T06:22:58.702Z,99.90
2018-05-29T06:25:26.248Z,99.90
2018-05-29T06:27:53.931Z,99.90
2018-05-29T06:30:21.707Z,99.90
2018-05-29T06:32:49.352Z,99.90
2018-05-29T06:35:17.035Z,99.90
2018-05-29T06:37:44.697Z,99.90
2018-05-29T06:40:12.537Z,99.90
2018-05-29T06:42:40.123Z,99.90
2018-05-29T06:45:07.771Z,99.90
2018-05-29T06:47:35.541Z,99.90
2018-05-29T06:50:03.586Z,99.90
2018-05-29T06:52:31.229Z,99.90
2018-05-29T06:54:59.114Z,99.90
2018-05-29T06:57:26.796Z,99.90
2018-05-29T06:59:54.375Z,99.90
2018-05-29T07:02:22.074Z,99.90
2018-05-29T07:04:49.927Z,99.90
2018-05-29T07:07:17.625Z,99.90
2018-05-29T07:09:45.174Z,99.90
2018-05-29T07:12:12.921Z,99.90
2018-05-29T07:14:40.519Z,99.90
2018-05-29T07:17:08.097Z,99.90
2018-05-29T07:19:35.900Z,99.90
2018-05-29T07:22:03.544Z,99.90
2018-05-29T07:24:31.556Z,99.90
2018-05-29T07:26:59.343Z,99.90
2018-05-29T07:29:26.993Z,99.90
2018-05-29T07:31:54.656Z,99.90
2018-05-29T07:34:22.192Z,99.90
2018-05-29T07:36:49.782Z,99.90
2018-05-29T07:39:17.418Z,99.90
2018-05-29T07:41:44.968Z,99.90
2018-05-29T07:44:12.765Z,99.90
2018-05-29T07:46:40.427Z,99.90
2018-05-29T07:49:07.972Z,99.90
2018-05-29T07:51:35.729Z,99.90
2018-05-29T07:54:03.397Z,99.90
2018-05-29T07:56:31.424Z,99.90
2018-05-29T07:58:59.000Z,99.90
2018-05-29T08:01:26.724Z,99.90
2018-05-29T08:03:54.273Z,99.90
2018-05-29T08:06:22.008Z,99.90
2018-05-29T08:08:49.728Z,99.90
2018-05-29T08:11:17.389Z,99.90
2018-05-29T08:13:44.976Z,99.90
2018-05-29T08:16:12.525Z,99.90
2018-05-29T08:18:40.221Z,99.90
2018-05-29T08:21:07.828Z,99.90
2018-05-29T08:23:35.377Z,99.90
2018-05-29T08:26:03.648Z,99.90
2018-05-29T08:28:32.129Z,99.90
2018-05-29T08:31:00.074Z,99.90
2018-05-29T08:33:27.684Z,99.90
2018-05-29T08:35:55.461Z,99.90
2018-05-29T08:38:23.024Z,99.90
2018-05-29T08:40:50.568Z,99.90
2018-05-29T08:43:18.148Z,99.90
2018-05-29T08:45:45.696Z,99.90
2018-05-29T08:48:13.240Z,99.90
2018-05-29T08:50:41.088Z,99.90
2018-05-29T08:53:08.649Z,99.90
2018-05-29T08:55:36.200Z,99.90
2018-05-29T08:58:04.542Z,99.90
2018-05-29T09:00:32.232Z,99.90
2018-05-29T09:02:59.824Z,99.90
2018-05-29T09:05:27.838Z,99.90
2018-05-29T09:07:55.659Z,99.90
2018-05-29T09:10:23.205Z,99.90
2018-05-29T09:12:50.795Z,99.90
2018-05-29T09:15:18.344Z,99.90
2018-05-29T09:17:45.899Z,99.90
2018-05-29T09:20:13.568Z,99.90
2018-05-29T09:22:41.720Z,94.70
2018-05-29T09:25:09.268Z,89.40
2018-05-29T09:27:36.989Z,92.70
2018-05-29T09:30:04.538Z,80.70
2018-05-29T09:32:32.108Z,81.20
2018-05-29T09:34:59.717Z,91.90
2018-05-29T09:37:27.270Z,92.30
2018-05-29T09:39:54.964Z,98.60
2018-05-29T09:42:22.564Z,91.90
2018-05-29T09:44:50.885Z,89.90
2018-05-29T09:47:18.432Z,89.70
2018-05-29T09:49:46.368Z,77.00
2018-05-29T09:52:14.686Z,79.30
2018-05-29T09:54:42.227Z,79.30
2018-05-29T09:57:09.812Z,77.20
2018-05-29T09:59:37.372Z,74.70
2018-05-29T10:02:04.925Z,69.50
2018-05-29T10:04:32.529Z,70.10
2018-05-29T10:07:00.387Z,71.30
2018-05-29T10:09:28.244Z,64.30
2018-05-29T10:11:55.846Z,70.30
2018-05-29T10:14:23.401Z,83.10
2018-05-29T10:16:51.213Z,68.90
2018-05-29T10:19:18.843Z,56.30
2018-05-29T10:21:46.368Z,60.40
2018-05-29T10:24:15.111Z,62.10
2018-05-29T10:26:42.888Z,62.20
2018-05-29T10:29:10.464Z,68.80
2018-05-29T10:31:38.217Z,72.80
2018-05-29T10:34:05.804Z,70.60
2018-05-29T10:36:33.582Z,68.70
2018-05-29T10:39:01.408Z,61.20
2018-05-29T10:41:29.304Z,62.90
2018-05-29T10:43:57.614Z,61.50
2018-05-29T10:46:25.217Z,61.40
2018-05-29T10:48:52.921Z,65.40
2018-05-29T10:51:20.470Z,69.00
2018-05-29T10:53:48.051Z,63.10
2018-05-29T10:56:15.633Z,66.60
2018-05-29T10:58:43.240Z,59.30
2018-05-29T11:01:10.967Z,59.40
2018-05-29T11:03:39.077Z,58.10
2018-05-29T11:06:07.401Z,57.30
2018-05-29T11:08:34.957Z,57.20
2018-05-29T11:11:02.534Z,58.30
2018-05-29T11:13:30.080Z,57.60
2018-05-29T11:15:57.631Z,55.60
2018-05-29T11:18:25.212Z,53.10
2018-05-29T11:20:53.209Z,55.10
2018-05-29T11:23:20.756Z,57.40
2018-05-29T11:25:49.407Z,60.10
2018-05-29T11:28:16.999Z,60.40
2018-05-29T11:30:44.583Z,57.40
2018-05-29T11:33:12.170Z,58.60
2018-05-29T11:35:39.716Z,58.00
2018-05-29T11:38:07.260Z,64.60
2018-05-29T11:40:34.845Z,69.20
2018-05-29T11:43:02.398Z,64.30
2018-05-29T11:45:30.110Z,63.70
2018-05-29T11:47:58.455Z,61.80
2018-05-29T11:50:26.168Z,61.80
2018-05-29T11:52:53.719Z,63.80
2018-05-29T11:55:22.064Z,69.70
2018-05-29T11:57:49.608Z,69.60
2018-05-29T12:00:17.209Z,73.60
2018-05-29T12:02:44.791Z,77.20
2018-05-29T12:05:12.459Z,83.60
2018-05-29T12:07:40.052Z,79.40
2018-05-29T12:10:07.630Z,84.60
2018-05-29T12:12:35.557Z,85.60
2018-05-29T12:15:03.209Z,89.30
2018-05-29T12:17:31.156Z,87.30
2018-05-29T12:19:58.719Z,88.40
2018-05-29T12:22:26.439Z,85.10
2018-05-29T12:24:54.033Z,91.30
2018-05-29T12:27:21.732Z,88.70
2018-05-29T12:29:49.364Z,91.50
2018-05-29T12:32:16.963Z,92.00
2018-05-29T12:34:44.512Z,95.20
2018-05-29T12:37:12.196Z,90.00
2018-05-29T12:39:39.774Z,82.10
2018-05-29T12:42:07.328Z,82.10
2018-05-29T12:44:35.647Z,81.00
2018-05-29T12:47:03.424Z,81.10
2018-05-29T12:49:30.966Z,83.30
2018-05-29T12:51:58.952Z,82.30
2018-05-29T12:54:26.586Z,82.30
2018-05-29T12:56:54.141Z,83.80
2018-05-29T12:59:21.707Z,84.90
2018-05-29T13:01:49.365Z,97.80
2018-05-29T13:04:17.091Z,90.20
2018-05-29T13:06:44.748Z,91.30
2018-05-29T13:09:12.431Z,91.50
2018-05-29T13:11:40.987Z,86.20
2018-05-29T13:14:08.735Z,86.10
2018-05-29T13:16:36.358Z,71.70
2018-05-29T13:19:03.893Z,59.10
2018-05-29T13:21:32.210Z,58.60
2018-05-29T13:23:59.820Z,58.00
2018-05-29T13:26:28.159Z,52.70
2018-05-29T13:28:56.144Z,52.60
2018-05-29T13:31:23.726Z,52.70
2018-05-29T13:33:51.277Z,53.30
2018-05-29T13:36:19.428Z,62.10
2018-05-29T13:38:46.990Z,77.40
2018-05-29T13:41:14.628Z,71.70
2018-05-29T13:43:42.203Z,72.70
2018-05-29T13:46:09.778Z,71.50
2018-05-29T13:48:37.484Z,75.30
2018-05-29T13:51:05.065Z,83.70
2018-05-29T13:53:32.893Z,78.80
2018-05-29T13:56:00.446Z,76.20
2018-05-29T13:58:28.784Z,75.90
2018-05-29T14:00:56.592Z,75.90
2018-05-29T14:03:25.068Z,70.90
2018-05-29T14:05:53.704Z,75.30
2018-05-29T14:08:21.688Z,75.60
2018-05-29T14:10:49.364Z,72.90
2018-05-29T14:13:16.946Z,71.90
2018-05-29T14:15:45.260Z,71.20
2018-05-29T14:18:12.970Z,71.50
2018-05-29T14:20:40.916Z,71.70
2018-05-29T14:23:08.675Z,64.30
2018-05-29T14:25:36.322Z,66.80
2018-05-29T14:28:04.078Z,65.70
2018-05-29T14:30:31.633Z,63.90
2018-05-29T14:32:59.413Z,65.20
2018-05-29T14:35:27.140Z,63.40
2018-05-29T14:37:55.304Z,63.40
2018-05-29T14:40:22.972Z,62.60
2018-05-29T14:42:50.709Z,65.10
2018-05-29T14:45:19.227Z,65.40
2018-05-29T14:47:46.894Z,65.20
2018-05-29T14:50:14.679Z,61.70
2018-05-29T14:52:42.308Z,64.10
2018-05-29T14:55:10.045Z,61.60
2018-05-29T14:57:38.820Z,60.80
2018-05-29T15:00:06.712Z,60.70
2018-05-29T15:02:34.319Z,61.40
2018-05-29T15:05:02.059Z,63.50
2018-05-29T15:07:29.613Z,62.60
2018-05-29T15:09:57.281Z,66.60
2018-05-29T15:12:25.656Z,65.60
2018-05-29T15:14:53.317Z,68.20
2018-05-29T15:17:21.182Z,69.00
2018-05-29T15:19:49.064Z,70.80
2018-05-29T15:22:16.709Z,71.30
2018-05-29T15:24:44.588Z,75.30
2018-05-29T15:27:12.172Z,79.40
2018-05-29T15:29:40.220Z,83.60
2018-05-29T15:32:08.153Z,83.80
2018-05-29T15:34:35.986Z,84.10
2018-05-29T15:37:03.576Z,91.10
2018-05-29T15:39:31.355Z,90.90
2018-05-29T15:41:59.178Z,93.00
2018-05-29T15:44:26.910Z,94.10
2018-05-29T15:46:54.543Z,95.10
2018-05-29T15:49:22.429Z,96.80
2018-05-29T15:51:50.242Z,92.90
2018-05-29T15:54:18.049Z,98.50
2018-05-29T15:56:45.644Z,99.90
2018-05-29T15:59:13.484Z,99.90
2018-05-29T16:01:41.408Z,99.90
2018-05-29T16:04:09.029Z,99.90
2018-05-29T16:06:37.080Z,99.90
2018-05-29T16:09:05.370Z,99.90
2018-05-29T16:11:32.959Z,99.90
2018-05-29T16:14:00.900Z,99.90
2018-05-29T16:16:28.733Z,99.90
2018-05-29T16:18:56.539Z,99.90
2018-05-29T16:21:24.348Z,99.90
2018-05-29T16:23:52.216Z,99.90
2018-05-29T16:26:20.303Z,99.90
2018-05-29T16:28:47.860Z,99.90
2018-05-29T16:31:15.940Z,99.90
2018-05-29T16:33:43.537Z,99.90
2018-05-29T16:36:11.097Z,99.90
2018-05-29T16:38:39.536Z,99.90
2018-05-29T16:41:10.050Z,99.90
2018-05-29T16:43:37.904Z,99.90
2018-05-29T16:46:05.537Z,99.90
2018-05-29T16:48:33.545Z,99.90
2018-05-29T16:51:01.682Z,99.90
2018-05-29T16:53:29.754Z,99.90
2018-05-29T16:55:57.380Z,99.90
2018-05-29T16:58:25.138Z,99.90
2018-05-29T17:00:52.722Z,99.90
2018-05-29T17:03:20.453Z,99.90
2018-05-29T17:05:48.374Z,99.90
2018-05-29T17:08:16.198Z,99.90
2018-05-29T17:10:43.851Z,99.90
2018-05-29T17:13:11.450Z,99.90
2018-05-29T17:15:39.031Z,99.90
2018-05-29T17:18:06.868Z,99.90
2018-05-29T17:20:35.238Z,99.90
2018-05-29T17:23:04.166Z,99.90
2018-05-29T17:25:32.600Z,99.90
2018-05-29T17:28:01.349Z,99.90
2018-05-29T17:30:29.105Z,99.90
2018-05-29T17:32:57.277Z,99.90
2018-05-29T17:35:24.831Z,99.90
2018-05-29T17:37:52.805Z,99.90
2018-05-29T17:40:20.401Z,99.90
2018-05-29T17:42:48.135Z,99.90
2018-05-29T17:45:16.025Z,99.90
2018-05-29T17:47:44.093Z,99.90
2018-05-29T17:50:11.644Z,99.90
2018-05-29T17:52:39.615Z,99.90
2018-05-29T17:55:07.214Z,99.90
2018-05-29T17:57:34.803Z,99.90
2018-05-29T18:00:02.540Z,99.90
2018-05-29T18:02:30.153Z,99.90
2018-05-29T18:04:57.761Z,99.90
2018-05-29T18:07:25.383Z,99.90
2018-05-29T18:09:53.233Z,99.90
2018-05-29T18:12:20.804Z,99.90
2018-05-29T18:14:48.386Z,99.90
2018-05-29T18:17:16.750Z,99.90
2018-05-29T18:19:44.303Z,99.90
2018-05-29T18:22:11.948Z,99.90
2018-05-29T18:24:39.548Z,99.90
2018-05-29T18:27:07.140Z,99.90
2018-05-29T18:29:34.696Z,99.90
2018-05-29T18:32:02.603Z,99.90
2018-05-29T18:34:31.259Z,99.90
2018-05-29T18:36:58.828Z,99.90
2018-05-29T18:39:26.690Z,99.90
2018-05-29T18:41:54.654Z,99.90
2018-05-29T18:44:22.422Z,99.90
2018-05-29T18:46:51.921Z,99.90
2018-05-29T18:49:19.832Z,99.90
2018-05-29T18:51:47.956Z,99.90
2018-05-29T18:54:15.557Z,99.90
2018-05-29T18:56:43.250Z,99.90
2018-05-29T18:59:11.161Z,99.90
2018-05-29T19:01:39.029Z,99.90
2018-05-29T19:04:06.749Z,99.90
2018-05-29T19:06:34.603Z,99.90
2018-05-29T19:09:02.440Z,99.90
2018-05-29T19:11:30.155Z,99.90
2018-05-29T19:13:58.171Z,99.90
2018-05-29T19:16:25.973Z,99.90
2018-05-29T19:18:53.527Z,99.90
2018-05-29T19:21:21.376Z,99.90
2018-05-29T19:23:49.820Z,99.90
2018-05-29T19:26:17.417Z,99.90
2018-05-29T19:28:44.999Z,99.90
2018-05-29T19:31:12.604Z,99.90
2018-05-29T19:33:40.180Z,99.90
2018-05-29T19:36:07.755Z,99.90
2018-05-29T19:38:36.154Z,99.90
2018-05-29T19:41:03.844Z,99.90
2018-05-29T19:43:31.720Z,99.90
2018-05-29T19:45:59.486Z,99.90
2018-05-29T19:48:28.012Z,99.90
2018-05-29T19:50:55.656Z,99.90
2018-05-29T19:53:23.536Z,99.90
2018-05-29T19:55:51.496Z,99.90
2018-05-29T19:58:19.833Z,99.90
2018-05-29T20:00:48.094Z,99.90
2018-05-29T20:03:15.855Z,99.90
2018-05-29T20:05:44.182Z,99.90
2018-05-29T20:08:12.557Z,99.90
2018-05-29T20:10:40.271Z,99.90
2018-05-29T20:13:07.836Z,99.90
2018-05-29T20:15:35.807Z,99.90
2018-05-29T20:18:03.561Z,99.90
2018-05-29T20:20:31.114Z,99.90
2018-05-29T20:22:58.696Z,99.90
2018-05-29T20:25:26.307Z,99.90
2018-05-29T20:27:54.980Z,99.90
2018-05-29T20:30:23.576Z,99.90
2018-05-29T20:32:51.392Z,99.90
2018-05-29T20:35:19.367Z,99.90
2018-05-29T20:37:46.977Z,99.90
2018-05-29T20:40:14.832Z,99.90
2018-05-29T20:42:43.125Z,99.90
2018-05-29T20:45:10.912Z,99.90
2018-05-29T20:47:39.279Z,99.90
2018-05-29T20:50:07.126Z,99.90
2018-05-29T20:52:34.758Z,99.90
2018-05-29T20:55:02.334Z,99.90
2018-05-29T20:57:30.750Z,99.90
2018-05-29T20:59:58.368Z,99.90
2018-05-29T21:02:25.928Z,99.90
2018-05-29T21:04:53.480Z,99.90
2018-05-29T21:07:21.341Z,99.90
2018-05-29T21:09:48.894Z,99.90
2018-05-29T21:12:16.462Z,99.90
2018-05-29T21:14:44.052Z,99.90
2018-05-29T21:17:12.455Z,99.90
2018-05-29T21:19:40.254Z,99.90
2018-05-29T21:22:08.180Z,99.90
2018-05-29T21:24:36.047Z,99.90
2018-05-29T21:27:04.339Z,99.90
2018-05-29T21:29:32.528Z,99.90
2018-05-29T21:32:00.670Z,99.90
2018-05-29T21:34:29.352Z,99.90
2018-05-29T21:36:57.238Z,99.90
2018-05-29T21:39:24.790Z,99.90
2018-05-29T21:41:52.789Z,99.90
2018-05-29T21:44:20.462Z,99.90
2018-05-29T21:46:49.081Z,99.90
2018-05-29T21:49:16.781Z,99.90
2018-05-29T21:51:45.205Z,99.90
2018-05-29T21:54:12.941Z,99.90
2018-05-29T21:56:41.269Z,99.90
2018-05-29T21:59:08.857Z,99.90
2018-05-29T22:01:36.408Z,99.90
2018-05-29T22:04:03.995Z,99.90
2018-05-29T22:06:32.348Z,99.90
2018-05-29T22:08:59.891Z,99.90
2018-05-29T22:11:27.433Z,99.90
2018-05-29T22:13:55.733Z,99.90
2018-05-29T22:16:23.432Z,99.90
2018-05-29T22:18:50.992Z,99.90
2018-05-29T22:21:19.364Z,99.90
2018-05-29T22:23:46.928Z,99.90
2018-05-29T22:26:14.663Z,99.90
2018-05-29T22:28:43.021Z,99.90
2018-05-29T22:31:10.751Z,99.90
2018-05-29T22:33:38.311Z,99.90
2018-05-29T22:36:05.963Z,99.90
2018-05-29T22:38:33.512Z,99.90
2018-05-29T22:41:01.065Z,99.90
2018-05-29T22:43:29.433Z,99.90
2018-05-29T22:45:57.354Z,99.90
2018-05-29T22:48:25.032Z,99.90
2018-05-29T22:50:53.094Z,99.90
2018-05-29T22:53:20.655Z,99.90
2018-05-29T22:55:48.620Z,99.90
2018-05-29T22:58:16.411Z,99.90
2018-05-29T23:00:43.960Z,99.90
2018-05-29T23:03:11.723Z,99.90
2018-05-29T23:05:39.398Z,99.90
2018-05-29T23:08:06.955Z,99.90
2018-05-29T23:10:34.611Z,99.90
2018-05-29T23:13:02.539Z,99.90
2018-05-29T23:15:30.124Z,99.90
2018-05-29T23:17:57.959Z,99.90
2018-05-29T23:20:25.826Z,99.90
2018-05-29T23:22:53.473Z,99.90
2018-05-29T23:25:21.024Z,99.90
2018-05-29T23:27:48.596Z,99.90
2018-05-29T23:30:16.147Z,99.90
2018-05-29T23:32:44.015Z,99.90
2018-05-29T23:35:11.792Z,99.90
2018-05-29T23:37:39.655Z,99.90
2018-05-29T23:40:07.427Z,99.90
2018-05-29T23:42:35.814Z,99.90
2018-05-29T23:45:03.748Z,99.90
2018-05-29T23:47:31.528Z,99.90
2018-05-29T23:49:59.122Z,99.90
2018-05-29T23:52:26.771Z,99.90
2018-05-29T23:54:54.312Z,99.90
2018-05-29T23:57:22.860Z,99.90
2018-05-29T23:59:50.593Z,99.90
